createdAt,value
2022-10-15T00:01:50.410Z,68.17
2022-10-15T00:04:19.177Z,71.63
2022-10-15T00:06:47.930Z,67.67
2022-10-15T00:09:16.650Z,66.47
2022-10-15T00:11:45.279Z,65.93
2022-10-15T00:14:15.815Z,63.43
2022-10-15T00:16:44.541Z,70.03
2022-10-15T00:19:13.295Z,71.63
2022-10-15T00:21:41.954Z,76.47
2022-10-15T00:24:10.667Z,72.73
2022-10-15T00:26:39.295Z,76.53
2022-10-15T00:29:08.458Z,75.03
2022-10-15T00:31:38.627Z,80.77
2022-10-15T00:34:07.339Z,77.20
2022-10-15T00:36:37.891Z,76.53
2022-10-15T00:39:08.216Z,77.60
2022-10-15T00:41:39.443Z,79.33
2022-10-15T00:44:41.347Z,77.07
2022-10-15T00:47:16.927Z,75.77
2022-10-15T00:49:49.618Z,76.10
2022-10-15T00:52:21.711Z,78.53
2022-10-15T00:54:54.342Z,78.37
2022-10-15T00:57:23.233Z,79.47
2022-10-15T00:59:55.623Z,84.70
2022-10-15T01:02:26.009Z,71.43
2022-10-15T01:04:55.485Z,76.70
2022-10-15T01:07:24.233Z,76.00
2022-10-15T01:09:53.170Z,75.93
2022-10-15T01:12:35.010Z,74.47
2022-10-15T01:15:10.395Z,74.67
2022-10-15T01:17:47.020Z,80.30
2022-10-15T01:20:56.838Z,77.40
2022-10-15T01:23:59.363Z,75.17
2022-10-15T01:26:47.644Z,79.47
2022-10-15T01:29:24.085Z,83.30
2022-10-15T01:32:02.819Z,82.53
2022-10-15T01:34:38.009Z,82.27
2022-10-15T01:37:11.458Z,92.20
2022-10-15T01:39:43.751Z,89.70
2022-10-15T01:42:18.868Z,88.63
2022-10-15T01:44:52.585Z,94.53
2022-10-15T01:47:29.414Z,93.30
2022-10-15T01:49:59.492Z,90.17
2022-10-15T01:52:32.571Z,93.77
2022-10-15T01:55:02.991Z,94.40
2022-10-15T01:57:34.074Z,92.30
2022-10-15T02:00:04.236Z,94.50
2022-10-15T02:02:34.313Z,95.73
2022-10-15T02:05:06.795Z,90.53
2022-10-15T02:07:45.149Z,95.87
2022-10-15T02:10:20.643Z,89.70
2022-10-15T02:13:04.796Z,88.70
2022-10-15T02:15:43.441Z,90.03
2022-10-15T02:18:20.843Z,91.47
2022-10-15T02:20:57.020Z,93.47
2022-10-15T02:23:36.404Z,90.17
2022-10-15T02:26:08.662Z,89.80
2022-10-15T02:28:42.975Z,88.37
2022-10-15T02:31:14.171Z,89.73
2022-10-15T02:33:45.233Z,83.27
2022-10-15T02:36:14.610Z,81.80
2022-10-15T02:38:45.861Z,82.80
2022-10-15T02:41:14.828Z,83.17
2022-10-15T02:43:43.789Z,80.10
2022-10-15T02:46:16.055Z,80.10
2022-10-15T02:48:46.207Z,80.93
2022-10-15T02:51:14.920Z,79.43
2022-10-15T02:53:43.559Z,76.83
2022-10-15T02:56:12.329Z,78.87
2022-10-15T02:58:41.031Z,75.57
2022-10-15T03:01:09.750Z,74.00
2022-10-15T03:03:38.505Z,73.43
2022-10-15T03:06:09.168Z,73.40
2022-10-15T03:08:37.856Z,76.53
2022-10-15T03:11:06.547Z,75.03
2022-10-15T03:13:38.059Z,70.50
2022-10-15T03:16:07.332Z,71.93
2022-10-15T03:18:39.723Z,71.83
2022-10-15T03:21:11.272Z,70.97
2022-10-15T03:23:40.549Z,73.87
2022-10-15T03:26:09.589Z,69.33
2022-10-15T03:28:38.416Z,71.07
2022-10-15T03:31:07.301Z,72.20
2022-10-15T03:33:35.912Z,67.30
2022-10-15T03:36:04.554Z,69.40
2022-10-15T03:38:34.693Z,72.70
2022-10-15T03:41:03.486Z,70.70
2022-10-15T03:43:32.118Z,68.80
2022-10-15T03:46:03.747Z,72.37
2022-10-15T03:48:32.674Z,67.47
2022-10-15T03:51:01.370Z,68.10
2022-10-15T03:53:30.775Z,67.50
2022-10-15T03:56:06.283Z,68.40
2022-10-15T03:58:35.034Z,65.13
2022-10-15T04:01:03.820Z,64.93
2022-10-15T04:03:32.715Z,65.73
2022-10-15T04:06:03.410Z,68.07
2022-10-15T04:08:32.150Z,64.40
2022-10-15T04:11:00.828Z,69.67
2022-10-15T04:13:31.105Z,65.07
2022-10-15T04:15:59.755Z,65.90
2022-10-15T04:18:28.488Z,67.73
2022-10-15T04:21:00.762Z,69.80
2022-10-15T04:23:29.785Z,66.60
2022-10-15T04:26:01.482Z,73.43
2022-10-15T04:28:31.597Z,67.47
2022-10-15T04:31:26.274Z,69.53
2022-10-15T04:33:54.998Z,73.20
2022-10-15T04:36:23.770Z,68.67
2022-10-15T04:38:52.483Z,71.30
2022-10-15T04:41:21.165Z,68.67
2022-10-15T04:43:51.241Z,67.87
2022-10-15T04:46:22.526Z,68.00
2022-10-15T04:48:52.889Z,72.33
2022-10-15T04:51:23.032Z,72.43
2022-10-15T04:53:51.891Z,70.50
2022-10-15T04:56:22.891Z,71.93
2022-10-15T04:58:53.142Z,74.43
2022-10-15T05:01:22.577Z,67.70
2022-10-15T05:03:51.482Z,68.80
2022-10-15T05:06:21.759Z,74.43
2022-10-15T05:08:51.414Z,71.70
2022-10-15T05:11:21.737Z,69.23
2022-10-15T05:13:50.830Z,72.87
2022-10-15T05:16:22.541Z,71.83
2022-10-15T05:18:53.771Z,75.32
2022-10-15T05:21:22.736Z,72.83
2022-10-15T05:23:52.013Z,69.07
2022-10-15T05:26:23.309Z,77.00
2022-10-15T05:28:52.845Z,71.97
2022-10-15T05:31:24.811Z,71.67
2022-10-15T05:33:54.999Z,68.63
2022-10-15T05:36:26.055Z,67.50
2022-10-15T05:38:56.038Z,65.33
2022-10-15T05:41:25.955Z,62.07
2022-10-15T05:43:56.851Z,62.77
2022-10-15T05:46:28.108Z,63.20
2022-10-15T05:48:58.387Z,61.17
2022-10-15T05:51:28.677Z,66.37
2022-10-15T05:53:58.226Z,62.13
2022-10-15T05:56:27.644Z,63.50
2022-10-15T05:58:56.685Z,61.47
2022-10-15T06:01:26.900Z,68.03
2022-10-15T06:03:56.108Z,64.87
2022-10-15T06:06:26.525Z,63.60
2022-10-15T06:08:55.865Z,64.37
2022-10-15T06:11:24.520Z,64.13
2022-10-15T06:13:53.124Z,62.60
2022-10-15T06:16:24.041Z,68.53
2022-10-15T06:18:54.974Z,61.40
2022-10-15T06:21:23.608Z,66.50
2022-10-15T06:23:52.441Z,67.53
2022-10-15T06:26:21.127Z,63.40
2022-10-15T06:28:49.908Z,68.85
2022-10-15T06:31:18.613Z,64.37
2022-10-15T06:33:47.315Z,62.57
2022-10-15T06:36:17.651Z,64.07
2022-10-15T06:38:48.265Z,64.17
2022-10-15T06:41:17.256Z,59.38
2022-10-15T06:43:46.518Z,60.90
2022-10-15T06:46:15.194Z,61.03
2022-10-15T06:48:43.919Z,60.93
2022-10-15T06:51:14.096Z,57.90
2022-10-15T06:53:44.221Z,60.53
2022-10-15T06:56:12.946Z,58.40
2022-10-15T06:58:44.121Z,55.73
2022-10-15T07:01:13.146Z,54.10
2022-10-15T07:03:42.040Z,53.80
2022-10-15T07:06:11.438Z,53.13
2022-10-15T07:08:40.031Z,49.50
2022-10-15T07:11:11.002Z,50.27
2022-10-15T07:13:40.277Z,53.17
2022-10-15T07:16:10.888Z,50.43
2022-10-15T07:18:40.705Z,52.80
2022-10-15T07:23:40.296Z,51.47
2022-10-15T07:26:10.373Z,48.23
2022-10-15T07:28:39.188Z,49.53
2022-10-15T07:31:09.115Z,50.63
2022-10-15T07:33:38.112Z,48.20
2022-10-15T07:36:08.700Z,47.57
2022-10-15T07:38:38.049Z,50.67
2022-10-15T07:41:07.387Z,46.50
2022-10-15T07:43:38.615Z,45.37
2022-10-15T07:46:07.586Z,46.93
2022-10-15T07:48:36.262Z,41.67
2022-10-15T07:51:07.195Z,42.07
2022-10-15T07:53:36.003Z,42.03
2022-10-15T07:56:08.068Z,49.37
2022-10-15T07:58:39.166Z,46.70
2022-10-15T08:01:09.307Z,46.13
2022-10-15T08:03:38.584Z,46.13
2022-10-15T08:06:09.281Z,44.37
2022-10-15T08:08:38.925Z,38.27
2022-10-15T08:11:08.690Z,39.07
2022-10-15T08:13:41.524Z,37.20
2022-10-15T08:16:11.349Z,36.70
2022-10-15T08:18:40.385Z,35.57
2022-10-15T08:21:09.846Z,38.47
2022-10-15T08:23:38.595Z,39.17
2022-10-15T08:26:07.658Z,52.70
2022-10-15T08:28:39.049Z,37.13
2022-10-15T08:31:08.468Z,35.00
2022-10-15T08:33:38.539Z,36.83
2022-10-15T08:36:07.698Z,36.70
2022-10-15T08:38:37.603Z,34.40
2022-10-15T08:41:15.756Z,36.73
2022-10-15T08:43:49.335Z,38.23
2022-10-15T08:46:22.454Z,36.87
2022-10-15T08:48:55.312Z,47.73
2022-10-15T08:51:27.118Z,41.73
2022-10-15T08:53:59.212Z,43.40
2022-10-15T08:56:32.927Z,49.03
2022-10-15T08:59:11.895Z,46.60
2022-10-15T09:01:49.776Z,43.47
2022-10-15T09:07:06.884Z,42.33
2022-10-15T09:09:43.428Z,40.67
2022-10-15T09:12:37.859Z,38.43
2022-10-15T09:15:17.199Z,37.13
2022-10-15T09:17:48.710Z,36.07
2022-10-15T09:20:19.760Z,36.37
2022-10-15T09:22:52.377Z,35.73
2022-10-15T09:25:26.433Z,38.30
2022-10-15T09:28:00.567Z,39.13
2022-10-15T09:30:36.060Z,39.17
2022-10-15T09:33:09.845Z,35.73
2022-10-15T09:35:46.527Z,37.53
2022-10-15T09:38:30.080Z,36.67
2022-10-15T09:41:16.651Z,41.70
2022-10-15T09:43:49.613Z,35.60
2022-10-15T09:46:19.687Z,37.10
2022-10-15T09:48:54.025Z,39.67
2022-10-15T09:51:28.845Z,40.30
2022-10-15T09:54:03.935Z,41.97
2022-10-15T09:56:38.275Z,36.93
2022-10-15T09:59:09.731Z,123.97
2022-10-15T10:01:40.481Z,50.80
2022-10-15T10:04:15.524Z,42.60
2022-10-15T10:06:51.285Z,40.60
2022-10-15T10:09:22.737Z,39.13
2022-10-15T10:11:55.091Z,42.83
2022-10-15T10:14:30.420Z,53.05
2022-10-15T10:17:21.344Z,47.33
2022-10-15T10:20:17.220Z,49.20
2022-10-15T10:22:51.247Z,56.47
2022-10-15T10:25:35.819Z,62.08
2022-10-15T10:28:17.693Z,57.40
2022-10-15T10:30:54.613Z,57.90
2022-10-15T10:33:28.657Z,34.30
2022-10-15T10:35:58.234Z,35.72
2022-10-15T10:38:30.515Z,37.35
2022-10-15T10:41:05.575Z,32.55
2022-10-15T10:43:39.106Z,37.15
2022-10-15T10:46:19.865Z,33.60
2022-10-15T10:48:51.972Z,33.47
2022-10-15T10:51:22.845Z,34.05
2022-10-15T10:53:55.220Z,33.47
2022-10-15T10:56:26.178Z,29.63
2022-10-15T10:59:03.084Z,33.47
2022-10-15T11:01:31.897Z,30.85
2022-10-15T11:04:02.061Z,29.83
2022-10-15T11:06:57.565Z,31.02
2022-10-15T11:09:43.691Z,29.75
2022-10-15T11:12:40.716Z,29.02
2022-10-15T11:15:25.251Z,26.27
2022-10-15T11:18:04.467Z,28.52
2022-10-15T11:20:57.818Z,26.98
2022-10-15T11:23:42.063Z,25.30
2022-10-15T11:26:26.962Z,29.00
2022-10-15T11:29:05.295Z,24.15
2022-10-15T11:31:49.101Z,26.52
2022-10-15T11:34:41.780Z,26.75
2022-10-15T11:37:25.524Z,27.65
2022-10-15T11:40:07.706Z,27.35
2022-10-15T11:42:41.067Z,25.63
2022-10-15T11:45:33.226Z,26.90
2022-10-15T11:48:06.131Z,25.95
2022-10-15T11:50:39.039Z,25.85
2022-10-15T11:53:31.370Z,27.98
2022-10-15T11:56:06.099Z,28.38
2022-10-15T11:58:38.251Z,28.20
2022-10-15T12:01:14.403Z,27.35
2022-10-15T12:03:51.328Z,31.60
2022-10-15T12:06:22.877Z,83.03
2022-10-15T12:08:55.207Z,34.80
2022-10-15T12:11:34.788Z,29.27
2022-10-15T12:14:15.105Z,42.65
2022-10-15T12:16:50.092Z,26.58
2022-10-15T12:19:21.890Z,31.45
2022-10-15T12:22:08.353Z,35.53
2022-10-15T12:24:56.580Z,41.00
2022-10-15T12:27:35.839Z,39.58
2022-10-15T12:30:32.558Z,39.08
2022-10-15T12:33:01.918Z,52.85
2022-10-15T12:35:36.539Z,39.97
2022-10-15T12:38:21.449Z,35.85
2022-10-15T12:40:59.109Z,34.30
2022-10-15T12:43:29.747Z,31.63
2022-10-15T12:46:02.675Z,31.77
2022-10-15T12:48:34.822Z,30.10
2022-10-15T12:51:47.135Z,29.90
2022-10-15T12:54:44.445Z,26.67
2022-10-15T12:58:01.784Z,26.60
2022-10-15T13:00:44.131Z,25.92
2022-10-15T13:03:39.850Z,29.83
2022-10-15T13:06:28.128Z,30.85
2022-10-15T13:09:03.319Z,30.27
2022-10-15T13:11:34.616Z,31.25
2022-10-15T13:14:11.011Z,31.17
2022-10-15T13:16:45.564Z,36.60
2022-10-15T13:19:20.758Z,32.92
2022-10-15T13:21:54.576Z,160.63
2022-10-15T13:24:26.327Z,40.67
2022-10-15T13:26:57.498Z,35.67
2022-10-15T13:29:29.237Z,33.70
2022-10-15T13:32:02.331Z,34.85
2022-10-15T13:34:37.361Z,32.65
2022-10-15T13:37:06.639Z,37.50
2022-10-15T13:39:38.688Z,39.15
2022-10-15T13:42:10.619Z,30.50
2022-10-15T13:44:39.746Z,29.83
2022-10-15T13:47:27.322Z,27.25
2022-10-15T13:50:14.686Z,25.25
2022-10-15T13:52:46.383Z,23.55
2022-10-15T13:55:24.124Z,24.55
2022-10-15T13:57:57.322Z,26.85
2022-10-15T14:00:29.768Z,25.50
2022-10-15T14:03:22.520Z,32.97
2022-10-15T14:05:53.110Z,29.80
2022-10-15T14:08:25.190Z,27.58
2022-10-15T14:11:36.250Z,152.50
2022-10-15T14:14:05.233Z,30.88
2022-10-15T14:16:40.923Z,31.88
2022-10-15T14:19:17.569Z,29.90
2022-10-15T14:21:48.830Z,31.75
2022-10-15T14:24:20.922Z,32.72
2022-10-15T14:26:50.339Z,30.65
2022-10-15T14:29:24.279Z,32.92
2022-10-15T14:31:53.176Z,34.88
2022-10-15T14:34:42.649Z,34.97
2022-10-15T14:37:33.336Z,34.03
2022-10-15T14:40:14.302Z,37.47
2022-10-15T14:42:45.437Z,44.85
2022-10-15T14:45:16.219Z,48.25
2022-10-15T14:47:48.454Z,48.53
2022-10-15T14:50:20.621Z,44.97
2022-10-15T14:52:52.272Z,39.45
2022-10-15T14:55:33.552Z,32.67
2022-10-15T14:58:09.336Z,28.85
2022-10-15T15:00:44.149Z,34.95
2022-10-15T15:03:17.397Z,31.47
2022-10-15T15:05:49.854Z,34.25
2022-10-15T15:08:19.002Z,38.03
2022-10-15T15:13:22.186Z,34.07
2022-10-15T15:15:51.275Z,33.03
2022-10-15T15:18:20.474Z,35.57
2022-10-15T15:20:52.169Z,32.33
2022-10-15T15:23:24.165Z,35.10
2022-10-15T15:25:54.438Z,29.33
2022-10-15T15:28:25.464Z,29.73
2022-10-15T15:30:58.905Z,35.63
2022-10-15T15:33:28.464Z,33.57
2022-10-15T15:36:04.003Z,42.43
2022-10-15T15:38:33.651Z,46.63
2022-10-15T15:41:04.916Z,45.27
2022-10-15T15:43:33.692Z,43.67
2022-10-15T15:46:02.762Z,48.53
2022-10-15T15:48:31.808Z,47.37
2022-10-15T15:51:05.497Z,47.90
2022-10-15T15:53:35.564Z,48.87
2022-10-15T15:56:04.340Z,45.80
2022-10-15T15:58:33.213Z,45.07
2022-10-15T16:01:02.045Z,43.93
2022-10-15T16:03:30.990Z,49.37
2022-10-15T16:05:59.904Z,53.93
2022-10-15T16:08:30.335Z,56.83
2022-10-15T16:11:03.525Z,57.83
2022-10-15T16:13:32.512Z,50.33
2022-10-15T16:16:01.364Z,49.67
2022-10-15T16:18:30.116Z,51.70
2022-10-15T16:20:59.170Z,54.70
2022-10-15T16:23:27.979Z,55.10
2022-10-15T16:25:58.569Z,53.77
2022-10-15T16:28:27.393Z,52.73
2022-10-15T16:31:36.707Z,48.77
2022-10-15T16:34:05.925Z,47.13
2022-10-15T16:36:34.735Z,58.53
2022-10-15T16:39:03.744Z,52.33
2022-10-15T16:41:34.057Z,58.23
2022-10-15T16:44:02.686Z,66.63
2022-10-15T16:46:31.368Z,57.27
2022-10-15T16:49:00.472Z,58.73
2022-10-15T16:54:03.630Z,74.60
2022-10-15T16:56:34.668Z,72.00
2022-10-15T16:59:03.511Z,55.47
2022-10-15T17:01:32.387Z,52.07
2022-10-15T17:04:01.449Z,61.50
2022-10-15T17:06:32.273Z,62.00
2022-10-15T17:09:03.851Z,67.00
2022-10-15T17:11:36.197Z,69.43
2022-10-15T17:14:07.679Z,52.97
2022-10-15T17:16:39.381Z,65.43
2022-10-15T17:19:09.368Z,63.83
2022-10-15T17:21:41.325Z,58.10
2022-10-15T17:24:14.534Z,63.53
2022-10-15T17:26:46.184Z,43.80
2022-10-15T17:29:20.499Z,49.50
2022-10-15T17:31:51.053Z,65.60
2022-10-15T17:34:22.011Z,64.23
2022-10-15T17:36:52.540Z,63.50
2022-10-15T17:39:22.922Z,70.13
2022-10-15T17:41:53.915Z,64.97
2022-10-15T17:44:23.148Z,57.33
2022-10-15T17:46:53.054Z,49.67
2022-10-15T17:49:22.510Z,48.67
2022-10-15T17:51:51.878Z,57.23
2022-10-15T17:54:20.694Z,58.47
2022-10-15T17:56:49.854Z,65.20
2022-10-15T17:59:20.226Z,85.07
2022-10-15T18:02:04.208Z,78.00
2022-10-15T18:04:33.115Z,74.00
2022-10-15T18:07:02.103Z,71.83
2022-10-15T18:09:30.968Z,82.03
2022-10-15T18:12:01.627Z,65.00
2022-10-15T18:14:32.266Z,65.13
2022-10-15T18:17:01.131Z,67.17
2022-10-15T18:19:30.680Z,67.33
2022-10-15T18:21:59.850Z,48.57
2022-10-15T18:24:28.636Z,47.80
2022-10-15T18:26:57.409Z,46.33
2022-10-15T18:29:26.273Z,48.50
2022-10-15T18:31:58.153Z,44.20
2022-10-15T18:34:27.468Z,47.13
2022-10-15T18:36:56.478Z,46.10
2022-10-15T18:39:25.833Z,46.13
2022-10-15T18:41:54.678Z,48.60
2022-10-15T18:44:23.828Z,45.38
2022-10-15T18:46:53.242Z,49.00
2022-10-15T18:49:23.449Z,48.37
2022-10-15T18:51:53.294Z,47.90
2022-10-15T18:54:23.245Z,43.43
2022-10-15T18:56:52.805Z,43.57
2022-10-15T18:59:21.605Z,43.87
2022-10-15T19:01:50.991Z,43.40
2022-10-15T19:04:20.407Z,40.50
2022-10-15T19:06:52.191Z,43.37
2022-10-15T19:09:22.521Z,44.27
2022-10-15T19:11:53.997Z,46.03
2022-10-15T19:14:23.984Z,44.23
2022-10-15T19:16:53.570Z,43.20
2022-10-15T19:19:24.025Z,43.13
2022-10-15T19:21:56.047Z,43.73
2022-10-15T19:24:25.804Z,40.80
2022-10-15T19:26:54.706Z,42.47
2022-10-15T19:29:23.782Z,44.83
2022-10-15T19:31:54.158Z,41.13
2022-10-15T19:34:23.896Z,44.13
2022-10-15T19:36:54.338Z,41.80
2022-10-15T19:39:24.310Z,47.93
2022-10-15T19:41:54.228Z,46.20
2022-10-15T19:44:26.043Z,43.90
2022-10-15T19:46:55.473Z,45.47
2022-10-15T19:49:25.218Z,53.07
2022-10-15T19:51:55.919Z,50.77
2022-10-15T19:56:54.811Z,51.80
2022-10-15T19:59:23.587Z,50.80
2022-10-15T20:01:52.566Z,51.37
2022-10-15T20:04:21.238Z,53.43
2022-10-15T20:06:52.958Z,53.40
2022-10-15T20:09:23.244Z,53.77
2022-10-15T20:11:52.010Z,54.93
2022-10-15T20:14:20.748Z,48.13
2022-10-15T20:16:49.614Z,46.07
2022-10-15T20:19:18.312Z,40.23
2022-10-15T20:21:47.059Z,41.37
2022-10-15T20:24:15.746Z,43.43
2022-10-15T20:26:45.843Z,40.43
2022-10-15T20:29:17.563Z,39.60
2022-10-15T20:31:46.347Z,39.07
2022-10-15T20:34:15.096Z,41.33
2022-10-15T20:36:43.920Z,40.87
2022-10-15T20:39:12.783Z,41.93
2022-10-15T20:41:42.597Z,40.33
2022-10-15T20:44:13.673Z,123.88
2022-10-15T20:46:48.650Z,36.97
2022-10-15T20:49:20.617Z,35.63
2022-10-15T20:51:49.776Z,37.37
2022-10-15T20:54:20.533Z,35.70
2022-10-15T20:56:49.475Z,35.07
2022-10-15T20:59:19.802Z,37.90
2022-10-15T21:01:48.682Z,36.73
2022-10-15T21:04:17.712Z,42.30
2022-10-15T21:06:46.440Z,41.83
2022-10-15T21:09:15.241Z,42.63
2022-10-15T21:11:44.552Z,42.67
2022-10-15T21:14:14.723Z,37.90
2022-10-15T21:16:45.103Z,40.87
2022-10-15T21:19:14.199Z,75.55
2022-10-15T21:21:43.515Z,38.13
2022-10-15T21:24:13.142Z,46.07
2022-10-15T21:26:42.349Z,37.40
2022-10-15T21:29:16.115Z,42.30
2022-10-15T21:31:47.635Z,46.33
2022-10-15T21:34:17.000Z,45.07
2022-10-15T21:36:45.918Z,38.07
2022-10-15T21:39:14.828Z,42.43
2022-10-15T21:41:43.638Z,45.60
2022-10-15T21:44:12.710Z,37.85
2022-10-15T21:46:42.432Z,45.10
2022-10-15T21:49:14.245Z,39.37
2022-10-15T21:51:43.408Z,38.60
2022-10-15T21:54:12.390Z,37.13
2022-10-15T21:56:41.133Z,35.90
2022-10-15T21:59:09.911Z,37.90
2022-10-15T22:01:39.160Z,33.67
2022-10-15T22:04:09.925Z,34.07
2022-10-15T22:06:41.088Z,32.63
2022-10-15T22:09:10.979Z,35.47
2022-10-15T22:11:41.309Z,38.90
2022-10-15T22:14:12.463Z,36.27
2022-10-15T22:16:42.163Z,38.67
2022-10-15T22:19:12.997Z,37.30
2022-10-15T22:21:43.169Z,35.13
2022-10-15T22:24:15.096Z,40.63
2022-10-15T22:26:46.066Z,39.77
2022-10-15T22:29:20.022Z,37.63
2022-10-15T22:31:49.426Z,39.83
2022-10-15T22:34:20.175Z,39.03
2022-10-15T22:36:52.591Z,33.60
2022-10-15T22:39:25.136Z,34.77
2022-10-15T22:41:53.783Z,34.00
2022-10-15T22:44:23.344Z,32.17
2022-10-15T22:46:52.232Z,33.40
2022-10-15T22:49:22.506Z,32.80
2022-10-15T22:51:53.364Z,32.40
2022-10-15T22:54:23.562Z,31.63
2022-10-15T22:56:52.565Z,35.53
2022-10-15T22:59:21.367Z,39.10
2022-10-15T23:01:50.061Z,32.63
2022-10-15T23:04:19.099Z,35.50
2022-10-15T23:06:47.926Z,34.37
2022-10-15T23:09:20.143Z,35.63
2022-10-15T23:11:50.656Z,37.10
2022-10-15T23:14:19.534Z,87.30
2022-10-15T23:16:49.750Z,27.27
2022-10-15T23:19:19.820Z,27.37
2022-10-15T23:21:50.143Z,35.13
2022-10-15T23:24:24.084Z,32.90
2022-10-15T23:26:53.258Z,30.87
2022-10-15T23:29:23.887Z,33.43
2022-10-15T23:31:52.822Z,36.77
2022-10-15T23:34:22.913Z,35.40
2022-10-15T23:36:52.100Z,35.00
2022-10-15T23:39:25.026Z,36.47
2022-10-15T23:41:54.010Z,35.17
2022-10-15T23:44:25.801Z,33.97
2022-10-15T23:46:54.745Z,34.50
2022-10-15T23:49:23.438Z,41.43
2022-10-15T23:51:52.287Z,32.60
2022-10-15T23:54:22.474Z,29.90
2022-10-15T23:56:51.237Z,31.90
2022-10-15T23:59:21.427Z,32.53
